This is the latest recevied weather packets stored in our database for station/object M0TUM-1. If no packets are shown the sender has not sent any weather packets the latest 1 day(s).
| Time | Temp. | Humidity | Pressure | Rain* | Wind** | Luminosity | Snow |
|---|---|---|---|---|---|---|---|
| 1777980115 | 17.78° C | 46% | 1012.4 hPa | 0 mm | 0.89 m/s, 150° | 706 W/m² | - |
| 1777979814 | 17.22° C | 47% | 1012.6 hPa | 0 mm | 0 m/s | 704 W/m² | - |
| 1777979510 | 16.67° C | 50% | 1012.5 hPa | 0 mm | 1.79 m/s, 6° | 757 W/m² | - |
| 1777979206 | 17.22° C | 46% | 1012.6 hPa | 0 mm | 3.13 m/s, 113° | 630 W/m² | - |
| 1777978904 | 16.11° C | 51% | 1012.7 hPa | 0 mm | 1.34 m/s, 352° | 725 W/m² | - |
| 1777978600 | 16.11° C | 50% | 1012.6 hPa | 0 mm | 0.89 m/s, 2° | 719 W/m² | - |
| 1777978296 | 15.56° C | 50% | 1013 hPa | 0 mm | 2.24 m/s, 8° | 706 W/m² | - |
| 1777977993 | 16.11° C | 51% | 1012.9 hPa | 0 mm | 1.34 m/s, 251° | 710 W/m² | - |
| 1777977691 | 16.67° C | 50% | 1012.7 hPa | 0 mm | 1.79 m/s, 65° | 704 W/m² | - |
| 1777977387 | 16.67° C | 49% | 1012.7 hPa | 0 mm | 0.89 m/s, 273° | 711 W/m² | - |
| 1777977085 | 16.11° C | 50% | 1012.7 hPa | 0 mm | 1.34 m/s, 39° | 721 W/m² | - |
| 1777976782 | 16.67° C | 50% | 1013 hPa | 0 mm | 0.45 m/s, 66° | 710 W/m² | - |
| 1777976479 | 15.56° C | 52% | 1013 hPa | 0 mm | 0.89 m/s, 23° | 700 W/m² | - |
| 1777976178 | 15.56° C | 50% | 1012.9 hPa | 0 mm | 0.45 m/s, 264° | 701 W/m² | - |
| 1777975874 | 15° C | 51% | 1013 hPa | 0 mm | 2.24 m/s, 48° | 670 W/m² | - |
| 1777975570 | 16.67° C | 49% | 1013.2 hPa | 0 mm | 3.13 m/s, 53° | 652 W/m² | - |
| 1777975267 | 16.67° C | 47% | 1012.9 hPa | 0 mm | 0 m/s | 663 W/m² | - |
| 1777974963 | 16.11° C | 48% | 1013.1 hPa | 0 mm | 0.45 m/s, 121° | 670 W/m² | - |
| 1777974660 | 16.11° C | 48% | 1013.1 hPa | 0 mm | 0.45 m/s, 107° | 647 W/m² | - |
| 1777974356 | 16.11° C | 50% | 1013.1 hPa | 0 mm | 1.34 m/s, 17° | 615 W/m² | - |
| 1777974052 | 16.11° C | 47% | 1013.4 hPa | 0 mm | 1.34 m/s, 150° | 631 W/m² | - |
| 1777973749 | 15.56° C | 48% | 1013.2 hPa | 0 mm | 0.45 m/s, 173° | 637 W/m² | - |
| 1777973447 | 15.56° C | 49% | 1013.1 hPa | 0 mm | 0.45 m/s, 249° | 649 W/m² | - |
| 1777973144 | 15.56° C | 49% | 1013.3 hPa | 0 mm | 0 m/s | 644 W/m² | - |
| 1777972842 | 14.44° C | 52% | 1013.1 hPa | 0 mm | 0.45 m/s, 220° | 675 W/m² | - |
* Rain latest hour (hover to see other rain measurements)
** Current wind speed in m/s (hover to see current wind gust speed)